Time;durP1;ratioP1;P1;durP2;ratioP2;P2;SDS_P1;SDS_P2;PMS_P1;PMS_P2;Temp;Humidity;BMP_temperature;BMP_pressure;BME280_temperature;BME280_humidity;BME280_pressure;Samples;Min_cycle;Max_cycle;Signal;HPM_P1;HPM_P2
2023/05/01 00:02:20;;;;;;;10.37;7.13;;;10.00;99.90;;;8.44;97.01;100408.03;10367497;28;97318;-88
2023/05/01 00:07:24;;;;;;;8.33;6.40;;;9.90;99.90;;;8.39;96.91;100397.06;10366921;28;96963;-88
2023/05/01 00:12:27;;;;;;;6.93;5.83;;;9.90;99.90;;;8.32;96.66;100395.94;10379500;28;96727;-88
2023/05/01 00:17:30;;;;;;;7.87;6.07;;;9.80;99.90;;;8.27;96.68;100403.50;10397639;28;96951;-89
2023/05/01 00:22:33;;;;;;;15.47;7.43;;;9.70;99.90;;;8.19;96.69;100390.19;10384984;28;96595;-88
2023/05/01 00:27:36;;;;;;;8.77;6.53;;;9.70;99.90;;;8.10;96.56;100391.91;10400308;28;96484;-88
2023/05/01 00:32:40;;;;;;;10.60;6.70;;;9.60;99.90;;;8.05;96.56;100388.88;10380597;28;98218;-88
2023/05/01 00:37:43;;;;;;;8.43;5.63;;;9.60;99.90;;;7.99;96.61;100392.09;10400097;28;96659;-89
2023/05/01 00:42:46;;;;;;;8.23;6.83;;;9.50;99.90;;;7.94;96.77;100389.88;10368287;28;96630;-89
2023/05/01 00:47:49;;;;;;;9.53;7.37;;;9.50;99.90;;;7.83;96.45;100389.25;10395331;28;96995;-89
2023/05/01 00:52:53;;;;;;;8.77;5.90;;;9.40;99.90;;;7.89;96.85;100397.44;10401548;28;96613;-90
2023/05/01 00:57:56;;;;;;;8.80;6.10;;;9.40;99.90;;;7.83;96.59;100402.47;10386246;28;97069;-91
2023/05/01 01:02:59;;;;;;;11.33;8.50;;;9.40;99.90;;;7.79;96.61;100401.91;10381768;28;96592;-91
2023/05/01 01:08:28;;;;;;;9.90;6.03;;;9.30;99.90;;;7.77;96.83;100399.41;10413481;28;96960;-90
2023/05/01 01:13:57;;;;;;;10.07;6.33;;;9.30;99.90;;;7.77;96.97;100402.06;10369220;28;96513;-91
2023/05/01 01:19:36;;;;;;;9.83;7.73;;;9.30;99.90;;;7.75;96.91;100405.84;10378733;28;96676;-90
2023/05/01 01:25:28;;;;;;;8.83;7.13;;;9.30;99.90;;;7.68;96.59;100400.31;10367925;28;96581;-92
2023/05/01 01:31:16;;;;;;;9.73;7.57;;;9.20;99.90;;;7.60;96.71;100394.88;10412787;28;98151;-90
2023/05/01 01:36:42;;;;;;;8.43;6.17;;;9.10;99.90;;;7.59;96.91;100390.56;10389671;28;98387;-90
2023/05/01 01:41:51;;;;;;;7.43;6.47;;;9.10;99.90;;;7.58;97.03;100399.50;10403733;28;97102;-91
2023/05/01 01:46:55;;;;;;;8.20;5.77;;;9.10;99.90;;;7.59;97.14;100390.56;10383063;28;97854;-92
2023/05/01 01:52:01;;;;;;;7.93;6.00;;;9.10;99.90;;;7.58;97.23;100388.09;10382668;28;96526;-90
2023/05/01 01:57:07;;;;;;;9.07;6.77;;;9.10;99.90;;;7.58;97.13;100390.72;10384688;28;96426;-91
2023/05/01 02:02:12;;;;;;;15.30;8.30;;;9.10;99.90;;;7.59;97.35;100387.94;10386856;28;97223;-92
2023/05/01 02:07:17;;;;;;;8.67;7.03;;;9.10;99.90;;;7.60;97.26;100394.88;10393656;28;96614;-91
2023/05/01 02:12:25;;;;;;;7.67;6.67;;;9.10;99.90;;;7.61;97.29;100393.91;10381100;28;96633;-90
2023/05/01 02:17:29;;;;;;;7.67;5.93;;;9.10;99.90;;;7.61;96.98;100398.34;10397754;28;98400;-91
2023/05/01 02:22:33;;;;;;;11.27;6.67;;;9.20;99.90;;;7.62;97.22;100411.47;10381503;28;96637;-90
2023/05/01 02:27:46;;;;;;;8.57;6.33;;;9.10;99.90;;;7.62;97.31;100398.22;10398819;28;96699;-92
2023/05/01 02:32:49;;;;;;;10.80;5.73;;;9.10;99.90;;;7.60;97.08;100400.16;10367454;28;97361;-91
2023/05/01 02:37:52;;;;;;;11.37;8.03;;;9.10;99.90;;;7.59;97.12;100398.50;10380396;28;97245;-92
2023/05/01 02:42:57;;;;;;;8.00;5.83;;;9.10;99.90;;;7.56;97.07;100406.75;10415272;28;96698;-91
2023/05/01 02:48:04;;;;;;;9.53;6.57;;;9.10;99.90;;;7.50;96.83;100402.03;10378302;28;97969;-91
2023/05/01 02:53:08;;;;;;;10.43;8.37;;;9.10;99.90;;;7.47;96.77;100408.41;10369310;28;96592;-91
2023/05/01 02:58:19;;;;;;;7.90;6.43;;;9.10;99.90;;;7.41;96.56;100411.63;10363208;28;96590;-89
2023/05/01 03:03:22;;;;;;;10.13;6.88;;;9.00;99.90;;;7.31;96.39;100412.63;10382851;28;96615;-89
2023/05/01 03:08:25;;;;;;;12.23;8.17;;;8.90;99.90;;;7.20;96.32;100406.53;10364226;28;97400;-88
2023/05/01 03:13:28;;;;;;;8.70;6.53;;;8.80;99.90;;;7.09;96.18;100408.50;10378510;28;96565;-88
2023/05/01 03:18:31;;;;;;;9.10;6.90;;;8.60;99.90;;;7.02;96.51;100417.91;10377699;28;96721;-88
2023/05/01 03:23:37;;;;;;;7.50;4.77;;;8.60;99.90;;;6.96;96.51;100419.34;10385657;28;96708;-89
2023/05/01 03:28:40;;;;;;;9.00;6.33;;;8.50;99.90;;;6.94;96.54;100431.84;10404008;28;97187;-89
2023/05/01 03:33:43;;;;;;;9.13;5.87;;;8.50;99.90;;;6.88;96.45;100435.88;10385776;28;96734;-82
2023/05/01 03:38:46;;;;;;;8.27;6.10;;;8.50;99.90;;;6.77;96.25;100427.22;10400638;28;96512;-80
2023/05/01 03:43:49;;;;;;;12.33;9.20;;;8.40;99.90;;;6.68;96.49;100416.53;10375738;28;96511;-81
2023/05/01 03:48:53;;;;;;;8.67;6.77;;;8.30;99.90;;;6.68;96.59;100431.53;10417429;28;96592;-80
2023/05/01 03:53:57;;;;;;;9.93;7.43;;;8.20;99.90;;;6.68;97.11;100424.47;10401876;28;96695;-80
2023/05/01 03:59:01;;;;;;;9.93;7.40;;;8.20;99.90;;;6.66;97.62;100420.31;10417508;28;97381;-80
2023/05/01 04:04:04;;;;;;;10.80;7.30;;;8.20;99.90;;;6.78;98.41;100432.41;10414343;28;96553;-80
2023/05/01 04:09:07;;;;;;;11.73;7.43;;;8.30;99.90;;;6.93;98.78;100440.75;10400291;28;96754;-80
2023/05/01 04:14:10;;;;;;;11.07;8.07;;;8.40;99.90;;;7.01;98.96;100438.22;10383132;28;96787;-80
2023/05/01 04:19:14;;;;;;;13.90;7.33;;;8.50;99.90;;;7.12;98.89;100431.97;10416363;28;97338;-82
2023/05/01 04:24:17;;;;;;;12.60;8.03;;;8.60;99.90;;;7.20;99.25;100432.97;10383939;28;96536;-81
2023/05/01 04:29:20;;;;;;;12.80;7.97;;;8.70;99.90;;;7.35;99.51;100440.44;10398299;28;97667;-82
2023/05/01 04:34:24;;;;;;;10.03;7.43;;;8.80;99.90;;;7.45;99.29;100441.28;10386546;28;96713;-82
2023/05/01 04:39:27;;;;;;;11.80;6.50;;;8.90;99.90;;;7.62;99.72;100445.84;10380293;28;96653;-80
2023/05/01 04:44:33;;;;;;;9.93;6.80;;;9.00;99.90;;;7.75;99.48;100451.66;10383309;28;96682;-81
2023/05/01 04:49:36;;;;;;;9.60;6.90;;;9.10;99.90;;;7.88;99.48;100447.84;10399930;28;96597;-81
2023/05/01 04:54:38;;;;;;;9.87;6.63;;;9.30;99.90;;;8.09;99.69;100451.09;10392959;28;96860;-81
2023/05/01 04:59:42;;;;;;;10.07;7.53;;;9.50;99.90;;;8.32;99.64;100452.38;10386958;28;96488;-81
2023/05/01 05:04:45;;;;;;;9.27;6.90;;;9.70;99.90;;;8.55;99.44;100452.03;10400479;28;96645;-84
2023/05/01 05:09:48;;;;;;;10.80;7.63;;;9.90;99.90;;;8.77;99.50;100451.63;10382794;28;96845;-80
2023/05/01 05:14:51;;;;;;;9.03;6.30;;;10.20;99.90;;;9.01;99.17;100439.59;10382115;28;96615;-82
2023/05/01 05:19:54;;;;;;;12.03;5.60;;;10.40;99.90;;;9.25;98.29;100450.41;10381372;28;98062;-81
2023/05/01 05:25:02;;;;;;;20.33;8.43;;;10.60;99.90;;;9.49;96.63;100451.59;10396524;28;96655;-81
2023/05/01 05:30:07;;;;;;;255.23;51.30;;;10.90;99.90;;;9.69;93.53;100453.03;10394156;28;96541;-82
2023/05/01 05:35:10;;;;;;;35.40;10.53;;;11.10;99.90;;;9.93;88.71;100455.84;10399540;28;97314;-82
2023/05/01 05:40:13;;;;;;;167.30;35.30;;;11.30;99.90;;;10.18;86.60;100466.59;10380068;28;97376;-82
2023/05/01 05:45:16;;;;;;;36.90;8.33;;;11.50;99.90;;;10.46;85.76;100461.94;10393122;28;98134;-82
2023/05/01 05:50:19;;;;;;;30.63;8.13;;;11.80;99.90;;;10.68;83.71;100471.16;10385790;28;98381;-82
2023/05/01 05:55:22;;;;;;;63.43;15.10;;;12.10;99.90;;;10.87;80.58;100473.50;10379902;28;96866;-82
2023/05/01 06:00:26;;;;;;;169.23;32.03;;;12.30;99.90;;;11.04;78.92;100470.91;10391534;28;98169;-82
2023/05/01 06:05:29;;;;;;;10.10;4.20;;;12.40;99.90;;;11.14;74.82;100466.22;10385480;28;96895;-82
2023/05/01 06:10:32;;;;;;;105.10;22.07;;;12.60;99.90;;;11.32;72.94;100466.06;10417182;28;96745;-83
2023/05/01 06:15:37;;;;;;;51.97;11.47;;;12.70;99.90;;;11.44;73.53;100467.41;10370817;27;96653;-82
2023/05/01 06:20:41;;;;;;;108.57;25.63;;;12.90;99.90;;;11.58;72.60;100471.25;10401017;27;96831;-82
2023/05/01 06:25:45;;;;;;;70.70;14.77;;;13.00;99.90;;;11.78;70.41;100475.19;10365586;27;96613;-80
2023/05/01 06:30:48;;;;;;;16.83;4.77;;;13.20;99.90;;;11.93;69.79;100464.72;10407920;27;98712;-88
2023/05/01 06:35:53;;;;;;;12.70;4.67;;;13.30;99.90;;;12.17;67.05;100469.97;10373968;27;96628;-90
2023/05/01 06:40:56;;;;;;;8.23;3.40;;;13.60;99.90;;;12.43;66.86;100464.38;10399205;28;96579;-94
2023/05/01 06:46:00;;;;;;;129.27;28.70;;;13.80;99.80;;;12.67;64.12;100473.28;10386019;27;97385;-90
2023/05/01 06:51:03;;;;;;;27.43;5.83;;;14.10;97.90;;;12.83;58.02;100473.16;10386304;27;96743;-82
2023/05/01 06:56:07;;;;;;;10.13;3.03;;;14.30;94.00;;;12.97;55.05;100471.59;10397906;27;96594;-82
2023/05/01 07:01:10;;;;;;;15.32;4.53;;;14.40;92.00;;;13.14;56.14;100473.16;10401053;28;96633;-83
2023/05/01 07:06:13;;;;;;;12.82;4.78;;;14.60;91.40;;;13.35;56.44;100467.19;10398472;28;98346;-83
2023/05/01 07:11:17;;;;;;;12.55;4.20;;;14.80;91.20;;;13.46;56.73;100471.25;10394427;27;96793;-82
2023/05/01 07:16:20;;;;;;;4.43;2.53;;;14.90;90.90;;;13.54;54.06;100472.00;10404253;27;97460;-81
2023/05/01 07:21:23;;;;;;;7.53;2.88;;;15.00;89.90;;;13.69;53.59;100481.91;10399730;27;96721;-82
2023/05/01 07:26:26;;;;;;;6.65;2.42;;;15.10;88.90;;;13.85;54.44;100473.72;10380947;27;96768;-82
2023/05/01 07:31:30;;;;;;;98.57;26.58;;;15.20;87.90;;;14.16;54.81;100470.91;10397842;28;98359;-81
2023/05/01 07:36:33;;;;;;;10.75;5.05;;;15.50;88.40;;;14.42;52.84;100471.25;10373987;27;98171;-84
2023/05/01 07:41:36;;;;;;;24.63;7.78;;;15.80;87.10;;;14.50;51.71;100469.50;10376143;27;96803;-89
2023/05/01 07:46:39;;;;;;;10.40;3.85;;;15.90;84.50;;;14.62;52.13;100458.16;10399213;27;96904;-84
2023/05/01 07:51:43;;;;;;;114.22;27.88;;;16.00;84.30;;;14.72;51.47;100461.38;10414144;28;96631;-86
2023/05/01 07:56:46;;;;;;;7.93;2.70;;;16.20;82.80;;;14.75;50.29;100462.81;10430268;27;97857;-85
2023/05/01 08:01:51;;;;;;;4.43;2.38;;;16.20;79.70;;;14.99;50.35;100467.00;10395677;27;96667;-90
2023/05/01 08:06:54;;;;;;;26.42;7.10;;;16.30;80.00;;;15.12;48.30;100464.47;10364683;27;96712;-87
2023/05/01 08:11:57;;;;;;;13.13;3.63;;;16.40;76.60;;;15.26;46.51;100463.56;10384539;28;96814;-83
2023/05/01 08:17:00;;;;;;;5.57;2.10;;;16.60;75.10;;;15.36;44.21;100463.25;10398675;27;96729;-83
2023/05/01 08:22:04;;;;;;;6.93;2.55;;;16.80;70.90;;;15.49;45.50;100474.06;10415462;27;96643;-82
2023/05/01 08:27:08;;;;;;;5.25;2.05;;;16.90;71.70;;;15.50;44.36;100461.50;10411620;27;96618;-90
2023/05/01 08:32:11;;;;;;;8.88;3.20;;;17.00;69.40;;;15.89;43.87;100461.00;10378634;27;96719;-83
2023/05/01 08:37:14;;;;;;;4.32;1.75;;;17.20;69.30;;;16.09;44.21;100457.63;10391290;27;96689;-85
2023/05/01 08:42:18;;;;;;;3.45;1.90;;;17.40;68.30;;;16.40;43.88;100457.16;10395210;27;96967;-83
2023/05/01 08:47:21;;;;;;;10.13;3.97;;;17.80;68.20;;;16.76;42.25;100448.88;10382942;27;97200;-83
2023/05/01 08:52:26;;;;;;;6.43;2.00;;;18.20;66.60;;;17.17;42.58;100447.94;10387284;27;96897;-81
2023/05/01 08:57:30;;;;;;;4.55;2.45;;;18.40;66.00;;;17.31;41.53;100445.03;10383458;27;96573;-80
2023/05/01 09:02:34;;;;;;;3.55;1.45;;;18.60;64.80;;;17.46;40.99;100446.72;10385911;28;97376;-81
2023/05/01 09:07:39;;;;;;;3.58;1.63;;;18.70;64.10;;;17.60;40.91;100448.34;10422308;27;98142;-81
2023/05/01 09:12:46;;;;;;;8.48;3.55;;;18.90;63.40;;;17.78;40.68;100440.50;10390033;28;98882;-87
2023/05/01 09:17:49;;;;;;;4.22;1.70;;;19.10;63.40;;;17.89;39.30;100437.19;10377977;28;96753;-89
2023/05/01 09:22:55;;;;;;;3.10;1.40;;;19.20;62.10;;;17.92;40.41;100435.94;10410369;28;97202;-83
2023/05/01 09:27:58;;;;;;;2.83;1.52;;;19.30;61.70;;;18.08;38.99;100421.22;10377361;28;97005;-82
2023/05/01 09:33:12;;;;;;;6.50;1.52;;;19.50;60.80;;;18.32;39.00;100423.19;10396225;28;96625;-83
2023/05/01 09:38:26;;;;;;;3.35;1.55;;;19.70;60.50;;;18.33;38.50;100415.94;10393942;27;96979;-83
2023/05/01 09:43:30;;;;;;;4.38;1.65;;;19.80;60.00;;;18.48;38.05;100413.81;10394535;28;96643;-81
2023/05/01 09:48:34;;;;;;;2.65;1.55;;;19.90;59.60;;;18.69;38.27;100416.22;10408293;28;98478;-81
2023/05/01 09:53:39;;;;;;;3.65;1.45;;;20.00;59.80;;;18.65;39.73;100400.66;10400155;28;98381;-82
2023/05/01 09:58:43;;;;;;;3.05;1.52;;;20.10;59.80;;;18.91;38.51;100408.63;10389610;28;96768;-82
2023/05/01 10:03:53;;;;;;;3.10;1.55;;;20.30;59.50;;;18.95;38.29;100404.47;10387689;28;98336;-83
2023/05/01 10:08:56;;;;;;;2.88;1.30;;;20.50;58.90;;;19.25;39.19;100395.72;10372987;28;98380;-82
2023/05/01 10:14:10;;;;;;;2.42;1.77;;;20.60;59.20;;;19.31;37.64;100392.19;10393419;28;98018;-82
2023/05/01 10:19:16;;;;;;;3.80;1.30;;;20.70;57.80;;;19.09;37.00;100394.41;10378922;28;96826;-82
2023/05/01 10:24:20;;;;;;;3.38;1.40;;;20.70;56.80;;;18.93;37.19;100382.31;10397613;28;96586;-81
2023/05/01 10:29:26;;;;;;;2.53;1.63;;;20.60;56.50;;;18.64;36.22;100375.63;10404124;27;97548;-82
2023/05/01 10:34:32;;;;;;;2.40;1.38;;;20.50;54.80;;;18.82;38.59;100366.03;10404469;27;96640;-82
2023/05/01 10:39:36;;;;;;;2.00;1.23;;;20.30;56.90;;;19.20;39.14;100372.16;10408046;28;97368;-81
2023/05/01 10:44:41;;;;;;;2.15;1.27;;;20.60;57.50;;;19.61;37.64;100365.41;10401330;27;97574;-83
2023/05/01 10:50:10;;;;;;;2.70;1.05;;;21.00;57.10;;;20.08;36.77;100345.97;10415530;27;97857;-83
2023/05/01 10:55:36;;;;;;;3.45;1.20;;;21.50;56.60;;;20.08;36.27;100354.06;10403186;28;97709;-82
2023/05/01 11:00:40;;;;;;;2.55;1.10;;;21.60;55.70;;;20.08;36.43;100349.50;10384458;28;96916;-83
2023/05/01 11:06:15;;;;;;;3.42;1.50;;;21.60;54.90;;;20.31;37.04;100343.41;10384240;28;97169;-82
2023/05/01 11:11:21;;;;;;;2.28;1.30;;;21.70;55.70;;;20.39;35.66;100340.41;10386141;28;97816;-82
2023/05/01 11:16:36;;;;;;;2.83;1.48;;;21.80;54.80;;;20.25;34.81;100339.72;10405711;27;96653;-82
2023/05/01 11:21:40;;;;;;;2.05;1.13;;;21.80;53.40;;;20.37;36.83;100334.38;10377121;28;96604;-82
2023/05/01 11:26:44;;;;;;;2.00;1.30;;;21.80;55.00;;;20.68;36.30;100330.63;10420873;27;97138;-82
2023/05/01 11:31:47;;;;;;;2.25;1.30;;;22.10;54.70;;;21.00;35.20;100319.56;10399425;28;98043;-82
2023/05/01 11:36:52;;;;;;;2.17;1.20;;;22.40;54.40;;;21.16;35.85;100323.44;10383058;28;98579;-82
2023/05/01 11:42:08;;;;;;;2.35;1.55;;;22.70;54.10;;;21.55;35.70;100306.53;10364807;27;97599;-83
2023/05/01 11:47:12;;;;;;;2.72;1.30;;;23.00;54.00;;;21.85;33.34;100305.53;10394914;28;96763;-82
2023/05/01 11:52:16;;;;;;;2.05;1.20;;;23.40;52.70;;;21.20;34.47;100303.00;10402651;28;96672;-83
2023/05/01 11:57:19;;;;;;;3.03;1.30;;;23.00;51.90;;;21.09;34.55;100308.16;10384057;28;96506;-82
2023/05/01 12:02:22;;;;;;;3.30;1.05;;;22.90;51.90;;;21.26;34.11;100302.88;10401258;28;96598;-82
2023/05/01 12:07:25;;;;;;;2.08;1.05;;;23.00;51.80;;;21.52;33.76;100290.78;10412266;28;98693;-82
2023/05/01 12:12:29;;;;;;;3.15;1.10;;;23.30;51.60;;;22.05;34.66;100295.13;10378650;28;96673;-83
2023/05/01 12:17:32;;;;;;;1.80;1.10;;;24.00;52.40;;;22.40;32.40;100280.63;10394027;27;98252;-83
2023/05/01 12:22:49;;;;;;;2.67;1.38;;;24.60;51.20;;;23.20;33.01;100279.50;10399114;28;97485;-82
2023/05/01 12:27:52;;;;;;;1.60;1.00;;;25.50;49.80;;;23.90;32.00;100268.00;10414923;28;96658;-83
2023/05/01 12:32:57;;;;;;;3.95;1.33;;;26.40;49.50;;;24.48;28.96;100261.03;10377923;28;97277;-84
2023/05/01 12:38:16;;;;;;;2.85;1.20;;;27.30;47.60;;;24.78;29.49;100256.91;10398163;28;97676;-84
2023/05/01 12:43:28;;;;;;;3.83;1.85;;;27.70;46.20;;;25.62;28.51;100250.66;10384557;28;96601;-84
2023/05/01 12:48:34;;;;;;;1.70;1.00;;;28.30;46.50;;;25.93;27.97;100234.44;10389652;27;96664;-83
2023/05/01 12:53:43;;;;;;;1.58;1.10;;;28.80;45.10;;;25.64;27.22;100240.31;10399095;27;96522;-85
2023/05/01 12:58:46;;;;;;;3.22;1.70;;;28.70;43.60;;;25.97;28.40;100232.78;10379860;28;96770;-85
2023/05/01 13:03:50;;;;;;;1.13;0.90;;;28.50;44.90;;;26.34;27.39;100219.81;10386663;27;98044;-86
2023/05/01 13:08:53;;;;;;;1.15;0.88;;;28.40;43.70;;;25.96;27.29;100218.38;10400584;27;96890;-85
2023/05/01 13:14:10;;;;;;;2.45;1.05;;;27.90;43.80;;;25.04;27.74;100219.84;10384240;28;96820;-86
2023/05/01 13:19:23;;;;;;;1.75;1.00;;;27.10;43.30;;;24.81;28.61;100216.44;10388538;28;98762;-84
2023/05/01 13:24:40;;;;;;;2.90;1.13;;;26.40;44.10;;;24.78;28.87;100210.72;10383721;27;96674;-84
2023/05/01 13:29:57;;;;;;;2.80;1.30;;;26.10;44.90;;;24.10;28.69;100204.94;10397087;28;96810;-86
2023/05/01 13:35:01;;;;;;;2.15;1.00;;;25.80;44.50;;;23.93;29.96;100194.22;10433140;27;96979;-85
2023/05/01 13:40:05;;;;;;;1.67;0.80;;;25.60;45.20;;;24.09;29.11;100195.16;10394935;27;98382;-85
2023/05/01 13:45:10;;;;;;;1.48;0.88;;;26.00;45.00;;;23.92;29.25;100183.59;10393162;27;97418;-91
2023/05/01 13:50:14;;;;;;;3.95;1.40;;;26.30;44.20;;;24.19;29.43;100187.13;10374139;28;97028;-89
2023/05/01 13:55:20;;;;;;;1.02;0.80;;;26.90;44.40;;;24.61;29.12;100180.16;10397039;28;96537;-95
2023/05/01 14:00:24;;;;;;;2.28;0.98;;;27.50;43.80;;;25.14;28.34;100167.47;10354613;28;96781;-89
2023/05/01 14:05:27;;;;;;;1.75;0.90;;;28.20;43.50;;;25.42;27.74;100158.88;10375641;28;96533;-88
2023/05/01 14:10:31;;;;;;;1.02;0.63;;;28.50;42.40;;;25.26;26.89;100159.91;10386089;28;96527;-89
2023/05/01 14:15:34;;;;;;;1.63;0.90;;;28.50;41.50;;;25.08;26.35;100151.13;10383844;28;96818;-85
2023/05/01 14:20:39;;;;;;;4.22;0.70;;;28.40;41.10;;;25.66;26.05;100158.38;10377676;28;97100;-94
2023/05/01 14:25:45;;;;;;;1.25;0.90;;;28.60;41.20;;;25.71;25.96;100144.81;10380227;28;96898;-96
2023/05/01 14:30:50;;;;;;;1.15;0.80;;;28.60;40.70;;;25.92;24.96;100145.69;10383392;28;96627;-94
2023/05/01 14:35:54;;;;;;;1.90;0.73;;;28.70;40.40;;;25.46;26.04;100132.78;10391410;28;96967;-87
2023/05/01 14:40:57;;;;;;;3.35;1.00;;;28.40;39.70;;;25.39;24.68;100139.56;10389653;28;96679;-86
2023/05/01 14:46:00;;;;;;;3.17;1.08;;;28.30;39.50;;;25.03;25.42;100128.50;10379478;28;97469;-88
2023/05/01 14:51:09;;;;;;;2.08;0.80;;;27.90;39.70;;;24.93;25.98;100123.00;10413101;28;96646;-87
2023/05/01 14:56:12;;;;;;;1.88;0.70;;;27.70;40.00;;;25.00;25.98;100118.16;10371072;28;97049;-87
2023/05/01 15:01:16;;;;;;;1.48;0.50;;;27.60;39.90;;;24.67;26.10;100130.22;10391035;28;96806;-87
2023/05/01 15:06:20;;;;;;;1.13;0.60;;;27.30;40.30;;;24.61;26.12;100126.66;10357707;28;96858;-85
2023/05/01 15:11:23;;;;;;;1.88;1.00;;;26.90;39.60;;;24.25;25.31;100120.94;10369817;28;97176;-87
2023/05/01 15:16:26;;;;;;;3.08;1.48;;;26.70;39.80;;;23.85;26.71;100124.09;10373282;27;96633;-85
2023/05/01 15:21:30;;;;;;;1.85;0.68;;;26.40;40.20;;;23.81;27.24;100127.59;10423250;28;96772;-84
2023/05/01 15:26:33;;;;;;;1.30;0.77;;;26.10;40.70;;;23.78;26.43;100120.78;10387246;27;97487;-86
2023/05/01 15:31:36;;;;;;;2.13;1.27;;;26.20;40.40;;;23.40;26.43;100119.84;10405242;28;97334;-86
2023/05/01 15:36:40;;;;;;;2.05;1.00;;;25.90;40.00;;;23.31;27.20;100115.09;10417897;28;97330;-86
2023/05/01 15:41:43;;;;;;;1.52;0.70;;;25.70;40.70;;;23.29;26.72;100109.13;10395180;28;97449;-86
2023/05/01 15:46:51;;;;;;;2.17;0.70;;;25.50;40.60;;;23.06;27.02;100104.78;10390493;28;97370;-86
2023/05/01 15:51:58;;;;;;;3.63;0.88;;;25.30;41.30;;;23.07;27.59;100118.06;10399744;28;96935;-87
2023/05/01 15:57:02;;;;;;;2.13;0.90;;;25.10;41.10;;;22.93;27.98;100108.69;10387915;28;98029;-92
2023/05/01 16:02:07;;;;;;;1.88;1.10;;;25.00;41.30;;;22.68;28.12;100109.97;10368539;28;97249;-91
2023/05/01 16:07:12;;;;;;;1.50;0.80;;;24.70;41.70;;;22.38;28.44;100118.44;10372135;28;96542;-89
2023/05/01 16:12:15;;;;;;;2.10;0.82;;;24.30;42.00;;;21.83;29.26;100124.56;10381390;28;98021;-88
2023/05/01 16:17:18;;;;;;;1.70;0.63;;;23.80;42.40;;;21.43;29.70;100119.19;10398847;27;96551;-88
2023/05/01 16:22:21;;;;;;;1.73;0.73;;;23.30;43.10;;;21.15;30.61;100108.34;10410504;28;96660;-89
2023/05/01 16:27:24;;;;;;;1.30;0.90;;;22.90;43.80;;;20.91;30.96;100113.78;10416122;27;96853;-89
2023/05/01 16:32:28;;;;;;;1.83;0.70;;;22.60;44.40;;;20.60;31.32;100115.00;10410109;27;96574;-88
2023/05/01 16:37:32;;;;;;;2.13;1.00;;;22.30;44.90;;;20.29;32.48;100108.88;10391400;28;96509;-93
2023/05/01 16:42:37;;;;;;;1.95;0.82;;;21.90;45.50;;;20.05;33.03;100118.81;10388346;27;97132;-89
2023/05/01 16:47:40;;;;;;;4.25;0.98;;;21.60;46.00;;;19.84;33.63;100115.81;10376268;28;97676;-89
2023/05/01 16:52:43;;;;;;;1.00;0.60;;;21.40;46.70;;;19.66;34.33;100122.09;10413478;28;96697;-88
2023/05/01 16:57:46;;;;;;;1.33;0.75;;;21.20;47.40;;;19.46;34.59;100120.47;10374082;27;96698;-89
2023/05/01 17:02:51;;;;;;;2.13;1.02;;;20.90;47.50;;;19.27;34.56;100115.34;10375362;27;97475;-89
2023/05/01 17:07:54;;;;;;;4.25;0.70;;;20.70;47.70;;;19.05;34.18;100117.69;10395882;28;97678;-87
2023/05/01 17:13:01;;;;;;;2.17;0.77;;;20.50;47.80;;;18.83;34.22;100112.75;10377258;28;97992;-82
2023/05/01 17:18:04;;;;;;;2.33;1.02;;;20.30;47.90;;;18.63;34.16;100118.28;10397511;27;96927;-85
2023/05/01 17:23:08;;;;;;;3.60;2.03;;;20.10;47.90;;;18.44;34.25;100116.63;10401405;27;96578;-84
2023/05/01 17:28:11;;;;;;;4.68;2.10;;;19.90;47.90;;;18.35;34.71;100121.47;10384357;28;96574;-84
2023/05/01 17:33:14;;;;;;;5.43;2.67;;;19.70;48.00;;;18.17;34.36;100116.88;10366667;28;97831;-84
2023/05/01 17:38:18;;;;;;;3.78;2.30;;;19.50;47.90;;;18.01;35.13;100120.09;10400390;27;97374;-89
2023/05/01 17:43:21;;;;;;;2.97;1.48;;;19.40;48.10;;;17.84;35.28;100118.97;10393674;28;96703;-89
2023/05/01 17:48:24;;;;;;;2.95;1.20;;;19.20;48.30;;;17.64;36.46;100127.13;10413069;28;97137;-88
2023/05/01 17:53:27;;;;;;;2.42;1.20;;;19.10;49.00;;;17.42;36.91;100121.25;10391142;28;97327;-90
2023/05/01 17:58:30;;;;;;;5.22;1.20;;;18.80;49.60;;;17.20;37.42;100126.09;10392241;28;98188;-89
2023/05/01 18:03:33;;;;;;;2.63;1.05;;;18.60;50.00;;;16.99;38.25;100127.22;10393774;28;98332;-90
2023/05/01 18:08:37;;;;;;;4.53;2.40;;;18.40;50.50;;;16.75;38.93;100125.22;10399894;28;96776;-88
2023/05/01 18:13:42;;;;;;;5.38;2.00;;;18.10;50.90;;;16.48;40.32;100127.06;10394204;28;97506;-89
2023/05/01 18:18:48;;;;;;;5.45;3.05;;;17.80;51.80;;;16.16;41.67;100126.88;10391801;28;97788;-90
2023/05/01 18:23:51;;;;;;;6.60;4.05;;;17.50;52.70;;;15.95;41.87;100144.00;10380368;28;96568;-89
2023/05/01 18:28:54;;;;;;;9.27;5.03;;;17.30;53.10;;;15.70;42.71;100141.03;10395497;28;96644;-92
2023/05/01 18:33:58;;;;;;;9.10;4.50;;;17.00;53.80;;;15.45;43.37;100146.09;10397911;28;96832;-85
2023/05/01 18:39:01;;;;;;;6.47;3.47;;;16.80;54.50;;;15.32;43.36;100153.25;10390665;28;97447;-86
2023/05/01 18:44:04;;;;;;;6.05;2.72;;;16.60;54.80;;;15.16;43.35;100159.75;10408767;28;96847;-92
2023/05/01 18:49:09;;;;;;;6.68;2.40;;;16.50;54.90;;;15.02;43.75;100150.84;10392323;28;96506;-88
2023/05/01 18:54:12;;;;;;;8.02;2.88;;;16.30;55.10;;;14.89;44.31;100158.81;10413094;28;96425;-94
2023/05/01 18:59:18;;;;;;;7.30;3.15;;;16.20;55.60;;;14.73;45.18;100154.56;10413319;28;97475;-93
2023/05/01 19:04:21;;;;;;;8.45;3.90;;;16.10;56.20;;;14.54;45.99;100168.66;10388850;28;96695;-93
2023/05/01 19:09:24;;;;;;;4.03;1.52;;;15.90;57.20;;;14.40;45.90;100173.84;10406274;28;96577;-93
2023/05/01 19:14:27;;;;;;;3.67;1.20;;;15.80;57.20;;;14.29;46.28;100171.72;10390291;28;96629;-93
2023/05/01 19:19:30;;;;;;;2.88;1.38;;;15.60;57.30;;;14.14;46.26;100181.63;10366137;28;96414;-94
2023/05/01 19:24:33;;;;;;;2.08;1.00;;;15.50;57.50;;;14.04;47.00;100187.31;10383233;28;96429;-93
2023/05/01 19:29:38;;;;;;;2.45;1.15;;;15.40;57.90;;;13.84;47.48;100187.09;10400967;28;96895;-93
2023/05/01 19:34:41;;;;;;;1.95;1.00;;;15.30;58.80;;;13.66;47.85;100184.00;10391180;28;96314;-94
2023/05/01 19:39:44;;;;;;;4.07;1.73;;;15.00;59.10;;;13.51;48.44;100181.38;10388804;28;98062;-94
2023/05/01 19:44:48;;;;;;;6.73;3.93;;;14.90;59.50;;;13.37;49.30;100184.88;10380051;28;97210;-88
2023/05/01 19:49:51;;;;;;;4.30;1.80;;;14.70;60.00;;;13.18;49.59;100183.59;10385475;28;96680;-88
2023/05/01 19:54:54;;;;;;;7.70;3.60;;;14.50;60.60;;;13.08;50.07;100188.41;10398411;28;96653;-87
2023/05/01 19:59:59;;;;;;;5.10;3.20;;;14.40;60.90;;;12.90;50.98;100190.59;10415085;28;97503;-88
2023/05/01 20:05:04;;;;;;;10.77;4.50;;;14.20;61.50;;;12.72;51.79;100191.78;10398465;28;97122;-88
2023/05/01 20:10:08;;;;;;;9.10;4.67;;;14.00;62.20;;;12.55;52.16;100185.78;10382397;28;97237;-88
2023/05/01 20:15:11;;;;;;;5.60;2.80;;;13.90;62.80;;;12.45;52.68;100182.53;10389341;27;96775;-88
2023/05/01 20:20:18;;;;;;;5.40;2.97;;;13.80;63.40;;;12.33;52.71;100191.97;10398760;28;97988;-88
2023/05/01 20:25:23;;;;;;;6.30;3.00;;;13.70;63.50;;;12.24;52.83;100187.72;10385179;28;97268;-87
2023/05/01 20:30:26;;;;;;;4.47;2.30;;;13.60;63.70;;;12.17;52.97;100192.06;10386207;28;97496;-92
2023/05/01 20:35:32;;;;;;;3.03;1.80;;;13.50;64.10;;;12.09;53.02;100186.81;10438379;27;97629;-92
2023/05/01 20:40:39;;;;;;;2.47;1.50;;;13.40;64.00;;;12.05;52.75;100197.84;10417793;28;98262;-92
2023/05/01 20:45:42;;;;;;;3.33;1.70;;;13.30;63.70;;;11.99;53.11;100200.38;10399778;28;97410;-92
2023/05/01 20:50:47;;;;;;;2.53;1.53;;;13.30;64.50;;;11.93;53.20;100201.06;10401079;28;97635;-93
2023/05/01 20:55:50;;;;;;;2.67;1.30;;;13.20;64.40;;;11.83;53.63;100201.31;10399457;28;97698;-92
2023/05/01 21:00:54;;;;;;;2.83;1.30;;;13.10;64.80;;;11.68;55.00;100211.84;10382894;28;96494;-91